createdAt,value
2022-10-06T00:01:47.860Z,14.34
2022-10-06T00:04:15.039Z,14.33
2022-10-06T00:06:42.438Z,14.34
2022-10-06T00:09:09.573Z,14.30
2022-10-06T00:11:37.632Z,14.29
2022-10-06T00:14:04.972Z,14.28
2022-10-06T00:16:32.256Z,14.23
2022-10-06T00:18:59.413Z,14.29
2022-10-06T00:21:26.600Z,14.27
2022-10-06T00:23:53.774Z,14.29
2022-10-06T00:26:20.984Z,14.27
2022-10-06T00:28:48.855Z,14.29
2022-10-06T00:31:16.514Z,14.35
2022-10-06T00:33:43.912Z,14.48
2022-10-06T00:36:11.130Z,14.53
2022-10-06T00:38:38.389Z,14.64
2022-10-06T00:41:05.746Z,14.68
2022-10-06T00:43:47.189Z,14.78
2022-10-06T00:46:31.919Z,14.78
2022-10-06T00:49:04.010Z,14.83
2022-10-06T00:51:31.564Z,14.99
2022-10-06T00:53:58.846Z,15.02
2022-10-06T00:56:26.731Z,15.01
2022-10-06T00:58:54.064Z,15.10
2022-10-06T01:01:21.303Z,15.20
2022-10-06T01:03:55.668Z,15.23
2022-10-06T01:06:22.870Z,15.21
2022-10-06T01:08:50.355Z,15.17
2022-10-06T01:11:17.555Z,15.12
2022-10-06T01:13:45.429Z,15.13
2022-10-06T01:16:24.455Z,15.14
2022-10-06T01:18:52.765Z,15.20
2022-10-06T01:21:36.003Z,15.34
2022-10-06T01:24:03.806Z,15.34
2022-10-06T01:26:34.732Z,15.44
2022-10-06T01:29:02.087Z,15.42
2022-10-06T01:31:29.695Z,15.38
2022-10-06T01:33:56.944Z,15.47
2022-10-06T01:36:24.124Z,15.47
2022-10-06T01:38:51.342Z,15.35
2022-10-06T01:41:19.495Z,15.26
2022-10-06T01:43:46.655Z,15.12
2022-10-06T01:46:13.923Z,15.07
2022-10-06T01:48:41.134Z,15.05
2022-10-06T01:51:12.378Z,15.01
2022-10-06T01:53:39.540Z,14.97
2022-10-06T01:56:06.803Z,15.02
2022-10-06T01:58:34.384Z,15.04
2022-10-06T02:01:07.123Z,15.01
2022-10-06T02:03:35.781Z,14.98
2022-10-06T02:06:03.821Z,14.90
2022-10-06T02:08:31.559Z,14.89
2022-10-06T02:10:59.067Z,14.86
2022-10-06T02:13:27.975Z,14.81
2022-10-06T02:15:58.470Z,14.76
2022-10-06T02:18:26.582Z,14.78
2022-10-06T02:20:54.016Z,14.80
2022-10-06T02:23:21.267Z,14.78
2022-10-06T02:25:48.480Z,14.78
2022-10-06T02:28:16.856Z,14.76
2022-10-06T02:30:44.334Z,14.74
2022-10-06T02:33:11.684Z,14.73
2022-10-06T02:35:38.976Z,14.70
2022-10-06T02:38:06.140Z,14.64
2022-10-06T02:40:33.462Z,14.63
2022-10-06T02:43:00.621Z,14.60
2022-10-06T02:45:27.939Z,14.61
2022-10-06T02:47:55.627Z,14.64
2022-10-06T02:50:23.403Z,14.70
2022-10-06T02:52:50.567Z,14.77
2022-10-06T02:55:17.795Z,14.87
2022-10-06T02:57:44.977Z,14.93
2022-10-06T03:00:12.720Z,15.02
2022-10-06T03:02:39.961Z,15.08
2022-10-06T03:05:07.426Z,15.10
2022-10-06T03:07:34.614Z,15.19
2022-10-06T03:10:01.811Z,15.27
2022-10-06T03:12:29.427Z,15.29
2022-10-06T03:14:56.598Z,15.33
2022-10-06T03:17:23.771Z,15.30
2022-10-06T03:19:50.920Z,15.35
2022-10-06T03:22:18.113Z,15.44
2022-10-06T03:24:45.269Z,15.51
2022-10-06T03:27:12.426Z,15.57
2022-10-06T03:29:39.578Z,15.59
2022-10-06T03:32:06.817Z,15.64
2022-10-06T03:34:34.165Z,15.70
2022-10-06T03:37:01.553Z,15.70
2022-10-06T03:39:28.768Z,15.71
2022-10-06T03:41:55.961Z,15.64
2022-10-06T03:44:23.265Z,15.55
2022-10-06T03:46:51.224Z,15.59
2022-10-06T03:49:18.458Z,15.61
2022-10-06T03:51:45.684Z,15.67
2022-10-06T03:54:12.858Z,15.65
2022-10-06T03:56:41.392Z,15.65
2022-10-06T03:59:10.823Z,15.63
2022-10-06T04:01:40.626Z,15.60
2022-10-06T04:04:08.307Z,15.64
2022-10-06T04:06:37.514Z,15.63
2022-10-06T04:09:05.192Z,15.64
2022-10-06T04:11:34.819Z,15.64
2022-10-06T04:14:11.292Z,15.64
2022-10-06T04:16:40.682Z,15.57
2022-10-06T04:19:12.513Z,15.56
2022-10-06T04:21:41.505Z,15.58
2022-10-06T04:24:09.388Z,15.61
2022-10-06T04:26:39.059Z,15.55
2022-10-06T04:29:06.440Z,15.52
2022-10-06T04:31:36.971Z,15.60
2022-10-06T04:34:05.439Z,15.53
2022-10-06T04:36:34.854Z,15.48
2022-10-06T04:39:04.128Z,15.47
2022-10-06T04:41:35.533Z,15.44
2022-10-06T04:44:03.432Z,15.35
2022-10-06T04:46:47.656Z,15.37
2022-10-06T04:49:19.974Z,15.39
2022-10-06T04:51:49.522Z,15.38
2022-10-06T04:54:17.087Z,15.22
2022-10-06T04:56:44.250Z,15.31
2022-10-06T04:59:11.437Z,15.34
2022-10-06T05:01:38.661Z,15.30
2022-10-06T05:04:06.438Z,15.31
2022-10-06T05:06:38.970Z,15.19
2022-10-06T05:09:11.330Z,15.20
2022-10-06T05:11:38.557Z,15.15
2022-10-06T05:14:06.074Z,15.10
2022-10-06T05:16:33.690Z,15.14
2022-10-06T05:19:00.967Z,15.12
2022-10-06T05:21:32.257Z,15.09
2022-10-06T05:23:59.656Z,15.16
2022-10-06T05:26:29.025Z,15.06
2022-10-06T05:28:56.246Z,15.02
2022-10-06T05:31:35.176Z,15.00
2022-10-06T05:34:02.434Z,15.07
2022-10-06T05:36:32.659Z,15.07
2022-10-06T05:39:05.721Z,15.03
2022-10-06T05:41:34.250Z,14.91
2022-10-06T05:44:01.511Z,14.87
2022-10-06T05:46:33.066Z,14.82
2022-10-06T05:49:10.536Z,14.85
2022-10-06T05:51:41.339Z,14.88
2022-10-06T05:54:08.879Z,14.81
2022-10-06T05:56:37.855Z,14.63
2022-10-06T05:59:05.725Z,14.50
2022-10-06T06:01:35.298Z,14.42
2022-10-06T06:04:04.248Z,14.32
2022-10-06T06:06:36.419Z,14.30
2022-10-06T06:09:11.649Z,14.22
2022-10-06T06:11:41.852Z,14.13
2022-10-06T06:14:11.460Z,14.15
2022-10-06T06:16:40.686Z,14.09
2022-10-06T06:19:09.319Z,14.04
2022-10-06T06:21:36.960Z,14.05
2022-10-06T06:24:05.451Z,14.01
2022-10-06T06:26:36.274Z,14.03
2022-10-06T06:29:03.960Z,14.05
2022-10-06T06:31:33.602Z,14.08
2022-10-06T06:34:02.832Z,14.11
2022-10-06T06:36:37.079Z,14.15
2022-10-06T06:39:09.549Z,14.37
2022-10-06T06:41:39.331Z,14.60
2022-10-06T06:44:08.296Z,14.79
2022-10-06T06:49:08.327Z,15.06
2022-10-06T06:51:37.254Z,15.04
2022-10-06T06:54:05.229Z,15.07
2022-10-06T06:56:36.576Z,15.12
2022-10-06T06:59:08.920Z,15.05
2022-10-06T07:01:38.162Z,15.03
2022-10-06T07:04:06.249Z,15.02
2022-10-06T07:06:36.419Z,15.08
2022-10-06T07:09:03.731Z,15.28
2022-10-06T07:11:33.174Z,15.50
2022-10-06T07:14:06.358Z,15.61
2022-10-06T07:16:52.845Z,15.66
2022-10-06T07:19:40.217Z,15.55
2022-10-06T07:22:29.018Z,15.45
2022-10-06T07:25:08.380Z,15.45
2022-10-06T07:27:36.682Z,15.59
2022-10-06T07:30:07.559Z,15.79
2022-10-06T07:32:34.866Z,15.98
2022-10-06T07:35:04.168Z,16.03
2022-10-06T07:37:31.393Z,16.15
2022-10-06T07:39:58.638Z,16.29
2022-10-06T07:42:25.895Z,16.38
2022-10-06T07:45:12.002Z,16.54
2022-10-06T07:47:39.216Z,16.69
2022-10-06T07:50:07.448Z,16.76
2022-10-06T07:52:39.216Z,16.77
2022-10-06T07:55:09.772Z,16.89
2022-10-06T07:57:37.088Z,16.89
2022-10-06T08:00:09.348Z,16.90
2022-10-06T08:02:36.601Z,16.89
2022-10-06T08:05:04.665Z,16.88
2022-10-06T08:07:31.966Z,16.81
2022-10-06T08:09:59.353Z,16.80
2022-10-06T08:12:37.758Z,16.73
2022-10-06T08:15:11.440Z,16.80
2022-10-06T08:17:38.643Z,16.75
2022-10-06T08:20:08.389Z,16.89
2022-10-06T08:22:36.341Z,16.91
2022-10-06T08:25:08.506Z,17.02
2022-10-06T08:27:37.618Z,17.35
2022-10-06T08:30:07.342Z,17.66
2022-10-06T08:32:34.775Z,17.57
2022-10-06T08:35:02.316Z,17.62
2022-10-06T08:37:29.720Z,17.58
2022-10-06T08:39:57.690Z,17.64
2022-10-06T08:42:48.581Z,17.69
2022-10-06T08:45:26.108Z,17.97
2022-10-06T08:47:54.293Z,18.03
2022-10-06T08:50:22.547Z,18.37
2022-10-06T08:53:16.321Z,18.48
2022-10-06T08:55:50.375Z,18.69
2022-10-06T08:58:30.202Z,18.59
2022-10-06T09:01:21.127Z,18.68
2022-10-06T09:03:51.503Z,18.56
2022-10-06T09:06:50.811Z,18.53
2022-10-06T09:09:45.966Z,18.51
2022-10-06T09:13:10.888Z,18.34
2022-10-06T09:16:00.580Z,18.35
2022-10-06T09:19:07.176Z,18.38
2022-10-06T09:21:45.728Z,18.46
2022-10-06T09:24:29.145Z,18.47
2022-10-06T09:27:00.655Z,18.77
2022-10-06T09:29:31.283Z,19.22
2022-10-06T09:31:59.280Z,19.69
2022-10-06T09:34:45.700Z,20.11
2022-10-06T09:37:13.785Z,19.96
2022-10-06T09:39:51.674Z,19.87
2022-10-06T09:42:29.603Z,19.67
2022-10-06T09:44:58.527Z,19.65
2022-10-06T09:47:46.046Z,19.58
2022-10-06T09:50:21.634Z,19.63
2022-10-06T09:53:05.296Z,19.96
2022-10-06T09:55:38.703Z,19.85
2022-10-06T09:58:17.611Z,19.79
2022-10-06T10:00:56.889Z,19.81
2022-10-06T10:03:31.351Z,19.79
2022-10-06T10:05:59.848Z,19.82
2022-10-06T10:08:31.063Z,19.93
2022-10-06T10:11:47.281Z,19.75
2022-10-06T10:14:20.282Z,19.82
2022-10-06T10:16:52.314Z,19.81
2022-10-06T10:19:32.972Z,19.87
2022-10-06T10:22:00.309Z,20.05
2022-10-06T10:24:41.552Z,20.21
2022-10-06T10:27:20.775Z,20.03
2022-10-06T10:30:04.965Z,20.54
2022-10-06T10:32:57.597Z,20.36
2022-10-06T10:35:51.413Z,20.26
2022-10-06T10:38:23.447Z,19.93
2022-10-06T10:41:13.578Z,19.93
2022-10-06T10:44:07.407Z,19.78
2022-10-06T10:46:46.032Z,19.86
2022-10-06T10:49:17.489Z,19.90
2022-10-06T10:52:00.364Z,20.40
2022-10-06T10:55:04.753Z,20.58
2022-10-06T10:57:37.561Z,20.66
2022-10-06T11:00:08.765Z,20.51
2022-10-06T11:02:38.278Z,20.37
2022-10-06T11:05:29.064Z,21.21
2022-10-06T11:08:07.676Z,21.15
2022-10-06T11:10:41.283Z,20.82
2022-10-06T11:13:29.198Z,20.73
2022-10-06T11:16:18.247Z,20.69
2022-10-06T11:19:09.087Z,20.63
2022-10-06T11:22:04.810Z,20.81
2022-10-06T11:24:41.136Z,20.82
2022-10-06T11:27:30.309Z,20.74
2022-10-06T11:30:07.176Z,20.75
2022-10-06T11:32:49.416Z,20.48
2022-10-06T11:35:26.947Z,20.64
2022-10-06T11:38:00.788Z,20.61
2022-10-06T11:40:56.357Z,21.00
2022-10-06T11:43:48.601Z,20.84
2022-10-06T11:50:55.924Z,20.34
2022-10-06T11:53:38.905Z,20.19
2022-10-06T11:56:18.176Z,20.23
2022-10-06T11:58:51.781Z,20.28
2022-10-06T12:01:31.363Z,20.03
2022-10-06T12:04:10.489Z,19.88
2022-10-06T12:06:43.616Z,19.73
2022-10-06T12:09:36.000Z,19.75
2022-10-06T12:12:15.638Z,19.54
2022-10-06T12:18:09.469Z,19.48
2022-10-06T12:20:55.201Z,19.55
2022-10-06T12:23:54.593Z,19.36
2022-10-06T12:27:04.512Z,19.41
2022-10-06T12:29:49.439Z,19.44
2022-10-06T12:32:54.044Z,19.35
2022-10-06T12:35:39.979Z,19.30
2022-10-06T12:38:33.964Z,19.19
2022-10-06T12:41:02.484Z,19.29
2022-10-06T12:43:37.908Z,19.25
2022-10-06T12:46:12.090Z,19.19
2022-10-06T12:48:45.356Z,19.15
2022-10-06T12:51:25.242Z,19.07
2022-10-06T12:54:10.479Z,19.08
2022-10-06T12:56:40.138Z,19.04
2022-10-06T12:59:35.290Z,18.98
2022-10-06T13:02:10.166Z,18.91
2022-10-06T13:04:43.022Z,18.76
2022-10-06T13:07:28.029Z,18.63
2022-10-06T13:10:31.079Z,18.67
2022-10-06T13:12:58.714Z,18.54
2022-10-06T13:15:35.017Z,18.50
2022-10-06T13:18:04.282Z,18.46
2022-10-06T13:20:39.655Z,18.41
2022-10-06T13:23:23.402Z,18.35
2022-10-06T13:26:30.307Z,18.26
2022-10-06T13:28:59.240Z,18.23
2022-10-06T13:31:31.451Z,18.15
2022-10-06T13:34:13.206Z,18.13
2022-10-06T13:36:42.701Z,18.08
2022-10-06T13:39:15.968Z,18.06
2022-10-06T13:41:56.338Z,18.02
2022-10-06T13:44:35.744Z,18.00
2022-10-06T13:47:16.317Z,18.01
2022-10-06T13:49:51.784Z,17.97
2022-10-06T13:52:40.350Z,17.98
2022-10-06T13:55:23.114Z,17.93
2022-10-06T13:58:04.826Z,17.92
2022-10-06T14:00:48.987Z,17.98
2022-10-06T14:06:22.397Z,17.83
2022-10-06T14:08:52.553Z,17.79
2022-10-06T14:11:26.528Z,17.71
2022-10-06T14:13:59.739Z,17.68
2022-10-06T14:16:28.526Z,17.68
2022-10-06T14:19:04.025Z,17.66
2022-10-06T14:21:42.503Z,17.66
2022-10-06T14:24:15.800Z,17.61
2022-10-06T14:26:45.219Z,17.60
2022-10-06T14:29:14.331Z,17.61
2022-10-06T14:31:41.884Z,17.54
2022-10-06T14:34:17.151Z,17.54
2022-10-06T14:36:53.583Z,17.49
2022-10-06T14:39:20.966Z,17.47
2022-10-06T14:41:48.332Z,17.46
2022-10-06T14:44:16.299Z,17.42
2022-10-06T14:46:48.123Z,17.36
2022-10-06T14:49:16.064Z,17.33
2022-10-06T14:51:45.301Z,17.37
2022-10-06T14:54:12.735Z,17.34
2022-10-06T14:56:42.789Z,17.26
2022-10-06T14:59:14.530Z,17.21
2022-10-06T15:01:42.461Z,17.19
2022-10-06T15:04:13.102Z,17.19
2022-10-06T15:06:59.677Z,17.20
2022-10-06T15:09:30.574Z,17.14
2022-10-06T15:11:58.742Z,17.16
2022-10-06T15:14:28.286Z,17.11
2022-10-06T15:16:56.086Z,17.02
2022-10-06T15:19:23.276Z,17.03
2022-10-06T15:21:51.092Z,16.95
2022-10-06T15:24:19.414Z,17.00
2022-10-06T15:27:06.271Z,16.90
2022-10-06T15:29:35.082Z,16.85
2022-10-06T15:32:03.668Z,16.78
2022-10-06T15:34:33.435Z,16.73
2022-10-06T15:37:01.226Z,16.70
2022-10-06T15:39:30.939Z,16.67
2022-10-06T15:41:58.656Z,16.68
2022-10-06T15:44:25.993Z,16.64
2022-10-06T15:46:55.067Z,16.61
2022-10-06T15:49:22.979Z,16.51
2022-10-06T15:52:11.063Z,16.45
2022-10-06T15:54:45.900Z,16.46
2022-10-06T15:57:20.285Z,16.46
2022-10-06T15:59:48.492Z,16.40
2022-10-06T16:02:17.990Z,16.34
2022-10-06T16:05:09.250Z,16.30
2022-10-06T16:07:36.500Z,16.26
2022-10-06T16:10:03.784Z,16.23
2022-10-06T16:12:32.675Z,16.11
2022-10-06T16:14:59.986Z,16.07
2022-10-06T16:17:27.212Z,16.03
2022-10-06T16:19:54.552Z,16.03
2022-10-06T16:22:22.119Z,15.95
2022-10-06T16:24:50.415Z,15.93
2022-10-06T16:27:17.714Z,15.85
2022-10-06T16:29:45.418Z,15.82
2022-10-06T16:32:15.082Z,15.76
2022-10-06T16:34:42.723Z,15.68
2022-10-06T16:37:10.046Z,15.61
2022-10-06T16:39:37.448Z,15.53
2022-10-06T16:42:07.992Z,15.48
2022-10-06T16:44:37.418Z,15.44
2022-10-06T16:47:04.829Z,15.36
2022-10-06T16:49:32.257Z,15.32
2022-10-06T16:51:59.587Z,15.24
2022-10-06T16:54:26.875Z,15.16
2022-10-06T16:56:55.673Z,15.10
2022-10-06T16:59:26.178Z,15.01
2022-10-06T17:01:53.552Z,14.91
2022-10-06T17:04:23.219Z,14.80
2022-10-06T17:06:52.933Z,14.74
2022-10-06T17:09:25.355Z,14.66
2022-10-06T17:11:58.545Z,14.58
2022-10-06T17:14:26.572Z,14.46
2022-10-06T17:16:56.328Z,14.43
2022-10-06T17:19:26.713Z,14.39
2022-10-06T17:21:58.559Z,14.27
2022-10-06T17:24:28.190Z,14.22
2022-10-06T17:26:56.681Z,14.13
2022-10-06T17:29:24.289Z,14.12
2022-10-06T17:32:01.742Z,14.09
2022-10-06T17:34:33.527Z,14.03
2022-10-06T17:37:01.937Z,13.96
2022-10-06T17:39:29.243Z,13.86
2022-10-06T17:41:57.061Z,13.74
2022-10-06T17:44:27.032Z,13.69
2022-10-06T17:46:58.958Z,13.60
2022-10-06T17:49:26.736Z,13.52
2022-10-06T17:51:55.112Z,13.43
2022-10-06T17:54:24.302Z,13.38
2022-10-06T17:56:54.916Z,13.30
2022-10-06T17:59:24.716Z,13.18
2022-10-06T18:01:54.219Z,13.19
2022-10-06T18:04:21.597Z,13.07
2022-10-06T18:06:49.044Z,13.05
2022-10-06T18:09:16.725Z,13.01
2022-10-06T18:11:55.625Z,12.99
2022-10-06T18:14:25.232Z,12.94
2022-10-06T18:16:56.774Z,12.88
2022-10-06T18:19:30.107Z,12.83
2022-10-06T18:22:02.648Z,12.68
2022-10-06T18:24:31.492Z,12.62
2022-10-06T18:27:00.854Z,12.51
2022-10-06T18:29:32.372Z,12.39
2022-10-06T18:33:37.278Z,12.22
2022-10-06T18:37:35.239Z,12.12
2022-10-06T18:40:06.287Z,12.06
2022-10-06T18:42:33.767Z,12.07
2022-10-06T18:45:19.876Z,12.08
2022-10-06T18:48:05.703Z,12.05
2022-10-06T18:50:33.450Z,11.99
2022-10-06T18:53:01.583Z,12.00
2022-10-06T18:55:29.806Z,11.93
2022-10-06T18:57:57.242Z,11.85
2022-10-06T19:00:25.928Z,11.68
2022-10-06T19:02:55.613Z,11.45
2022-10-06T19:05:23.468Z,11.42
2022-10-06T19:07:53.321Z,11.46
2022-10-06T19:10:20.610Z,11.35
2022-10-06T19:12:48.567Z,11.25
2022-10-06T19:15:20.305Z,11.25
2022-10-06T19:17:48.763Z,11.26
2022-10-06T19:20:16.180Z,11.28
2022-10-06T19:22:43.571Z,11.25
2022-10-06T19:25:11.428Z,11.24
2022-10-06T19:27:38.688Z,11.18
2022-10-06T19:30:06.322Z,11.12
2022-10-06T19:32:34.960Z,11.09
2022-10-06T19:35:05.182Z,10.98
2022-10-06T19:37:35.055Z,10.97
2022-10-06T19:40:02.262Z,10.88
2022-10-06T19:42:47.617Z,10.86
2022-10-06T19:45:16.030Z,10.62
2022-10-06T19:47:47.755Z,10.59
2022-10-06T19:50:17.091Z,10.53
2022-10-06T19:52:45.257Z,10.53
2022-10-06T19:55:12.544Z,10.56
2022-10-06T19:57:39.962Z,10.58
2022-10-06T20:00:07.933Z,10.62
2022-10-06T20:02:38.602Z,10.55
2022-10-06T20:05:10.297Z,10.52
2022-10-06T20:07:37.556Z,10.48
2022-10-06T20:10:04.916Z,10.36
2022-10-06T20:12:33.683Z,10.26
2022-10-06T20:15:00.875Z,10.18
2022-10-06T20:17:28.922Z,10.15
2022-10-06T20:19:59.258Z,10.08
2022-10-06T20:22:26.667Z,10.02
2022-10-06T20:24:53.977Z,9.93
2022-10-06T20:27:21.185Z,9.90
2022-10-06T20:29:48.637Z,9.83
2022-10-06T20:32:15.882Z,9.90
2022-10-06T20:34:43.194Z,9.87
2022-10-06T20:37:10.384Z,9.89
2022-10-06T20:39:56.041Z,9.78
2022-10-06T20:42:24.060Z,9.73
2022-10-06T20:44:54.037Z,9.66
2022-10-06T20:47:21.301Z,9.62
2022-10-06T20:49:54.875Z,9.61
2022-10-06T20:52:23.729Z,9.49
2022-10-06T20:54:51.193Z,9.27
2022-10-06T20:57:18.436Z,9.30
2022-10-06T20:59:46.067Z,9.30
2022-10-06T21:02:13.564Z,9.30
2022-10-06T21:04:43.682Z,9.28
2022-10-06T21:07:11.397Z,9.25
2022-10-06T21:09:38.720Z,9.20
2022-10-06T21:12:06.138Z,9.18
2022-10-06T21:14:34.294Z,9.09
2022-10-06T21:17:02.059Z,9.07
2022-10-06T21:19:30.205Z,9.04
2022-10-06T21:21:57.612Z,9.01
2022-10-06T21:24:25.166Z,8.94
2022-10-06T21:26:52.896Z,8.96
2022-10-06T21:29:20.718Z,9.00
2022-10-06T21:31:48.125Z,8.93
2022-10-06T21:34:15.717Z,8.90
2022-10-06T21:36:44.252Z,8.89
2022-10-06T21:39:12.124Z,8.86
2022-10-06T21:41:40.127Z,8.81
2022-10-06T21:44:09.806Z,8.88
2022-10-06T21:46:48.656Z,8.83
2022-10-06T21:49:17.913Z,8.75
2022-10-06T21:51:46.679Z,8.72
2022-10-06T21:54:14.612Z,8.75
2022-10-06T21:56:42.178Z,8.75
2022-10-06T21:59:10.346Z,8.70
2022-10-06T22:01:40.801Z,8.62
2022-10-06T22:04:08.346Z,8.60
2022-10-06T22:06:37.067Z,8.56
2022-10-06T22:09:07.424Z,8.58
2022-10-06T22:11:40.219Z,8.54
2022-10-06T22:14:10.313Z,8.45
2022-10-06T22:16:38.392Z,8.31
2022-10-06T22:19:07.618Z,8.31
2022-10-06T22:21:40.030Z,8.30
2022-10-06T22:24:13.340Z,8.20
2022-10-06T22:26:41.782Z,8.28
2022-10-06T22:29:14.691Z,8.29
2022-10-06T22:31:44.065Z,8.26
2022-10-06T22:34:11.963Z,8.18
2022-10-06T22:36:39.654Z,8.10
2022-10-06T22:39:07.141Z,8.06
2022-10-06T22:41:34.538Z,8.06
2022-10-06T22:44:02.073Z,8.05
2022-10-06T22:46:31.915Z,8.15
2022-10-06T22:48:59.483Z,8.12
2022-10-06T22:51:26.928Z,8.04
2022-10-06T22:53:58.338Z,8.07
2022-10-06T22:56:30.399Z,8.05
2022-10-06T22:59:00.655Z,8.04
2022-10-06T23:01:29.162Z,8.04
2022-10-06T23:03:56.732Z,7.96
2022-10-06T23:06:24.771Z,7.86
2022-10-06T23:08:52.339Z,7.80
2022-10-06T23:11:21.407Z,7.62
2022-10-06T23:13:50.489Z,7.56
2022-10-06T23:16:19.370Z,7.58
2022-10-06T23:18:47.494Z,7.59
2022-10-06T23:21:22.020Z,7.60
2022-10-06T23:23:54.324Z,7.61
2022-10-06T23:26:22.830Z,7.61
2022-10-06T23:28:55.560Z,7.62
2022-10-06T23:31:23.473Z,7.61
2022-10-06T23:33:50.988Z,7.52
2022-10-06T23:36:18.904Z,7.44
2022-10-06T23:38:46.906Z,7.45
2022-10-06T23:41:14.754Z,7.50
2022-10-06T23:43:42.368Z,7.54
2022-10-06T23:46:10.001Z,7.50
2022-10-06T23:48:37.636Z,7.33
2022-10-06T23:51:07.704Z,7.29
2022-10-06T23:53:35.978Z,7.26
2022-10-06T23:56:06.144Z,7.21
2022-10-06T23:58:33.491Z,7.08
